createdAt,value
2018-05-17T00:00:14.916Z,74.87
2018-05-17T00:01:14.942Z,72.67
2018-05-17T00:02:14.969Z,73.82
2018-05-17T00:03:14.995Z,74.77
2018-05-17T00:04:15.032Z,73.82
2018-05-17T00:05:15.052Z,74.11
2018-05-17T00:06:15.075Z,74.40
2018-05-17T00:07:15.109Z,75.16
2018-05-17T00:08:15.127Z,73.91
2018-05-17T00:09:15.157Z,73.54
2018-05-17T00:10:15.181Z,76.27
2018-05-17T00:11:15.207Z,77.04
2018-05-17T00:12:15.234Z,76.02
2018-05-17T00:13:15.263Z,73.44
2018-05-17T00:14:15.290Z,74.20
2018-05-17T00:15:15.314Z,74.36
2018-05-17T00:16:15.341Z,75.89
2018-05-17T00:17:15.370Z,76.08
2018-05-17T00:18:15.397Z,75.31
2018-05-17T00:19:15.422Z,75.31
2018-05-17T00:20:15.451Z,76.18
2018-05-17T00:21:15.476Z,76.75
2018-05-17T00:22:15.507Z,78.76
2018-05-17T00:23:15.528Z,78.19
2018-05-17T00:24:15.555Z,76.37
2018-05-17T00:25:15.582Z,74.84
2018-05-17T00:26:15.611Z,75.98
2018-05-17T00:27:15.636Z,76.18
2018-05-17T00:28:15.660Z,74.58
2018-05-17T00:29:15.780Z,73.59
2018-05-17T00:30:15.717Z,73.79
2018-05-17T00:31:15.742Z,75.98
2018-05-17T00:32:15.765Z,76.75
2018-05-17T00:33:15.793Z,74.55
2018-05-17T00:34:15.819Z,75.12
2018-05-17T00:35:15.844Z,75.60
2018-05-17T00:36:15.872Z,75.22
2018-05-17T00:37:15.902Z,74.36
2018-05-17T00:38:15.930Z,75.31
2018-05-17T00:39:15.953Z,75.12
2018-05-17T00:40:15.977Z,76.27
2018-05-17T00:41:16.003Z,78.66
2018-05-17T00:42:16.029Z,78.57
2018-05-17T00:43:16.064Z,76.56
2018-05-17T00:44:16.083Z,75.41
2018-05-17T00:45:16.109Z,76.37
2018-05-17T00:46:16.133Z,74.70
2018-05-17T00:47:16.159Z,77.38
2018-05-17T00:48:16.189Z,77.38
2018-05-17T00:49:16.213Z,78.05
2018-05-17T00:50:16.237Z,78.72
2018-05-17T00:51:16.269Z,78.05
2018-05-17T00:52:16.355Z,76.75
2018-05-17T00:53:16.317Z,75.89
2018-05-17T00:54:16.344Z,75.31
2018-05-17T00:55:16.369Z,74.55
2018-05-17T00:56:16.403Z,74.07
2018-05-17T00:57:16.426Z,74.36
2018-05-17T00:58:16.448Z,77.23
2018-05-17T00:59:16.476Z,77.57
2018-05-17T01:00:16.498Z,76.90
2018-05-17T01:01:16.529Z,77.76
2018-05-17T01:02:16.560Z,76.23
2018-05-17T01:03:16.583Z,78.14
2018-05-17T01:04:16.611Z,78.24
2018-05-17T01:05:16.633Z,78.14
2018-05-17T01:06:16.657Z,75.79
2018-05-17T01:07:16.687Z,74.55
2018-05-17T01:08:16.709Z,74.65
2018-05-17T01:09:16.741Z,74.16
2018-05-17T01:10:16.762Z,74.55
2018-05-17T01:11:16.787Z,77.00
2018-05-17T01:12:16.816Z,78.14
2018-05-17T01:13:16.842Z,78.24
2018-05-17T01:14:16.864Z,79.20
2018-05-17T01:15:16.896Z,78.53
2018-05-17T01:16:16.916Z,76.71
2018-05-17T01:17:16.942Z,75.85
2018-05-17T01:18:16.975Z,74.80
2018-05-17T01:19:16.997Z,73.75
2018-05-17T01:20:17.026Z,75.47
2018-05-17T01:21:17.051Z,75.56
2018-05-17T01:22:17.081Z,78.14
2018-05-17T01:23:17.101Z,78.72
2018-05-17T01:24:17.131Z,78.91
2018-05-17T01:25:17.152Z,77.09
2018-05-17T01:26:17.176Z,76.14
2018-05-17T01:27:17.206Z,76.14
2018-05-17T01:28:17.230Z,75.95
2018-05-17T01:29:17.260Z,76.04
2018-05-17T01:30:17.281Z,75.31
2018-05-17T01:31:17.312Z,73.59
2018-05-17T01:32:17.340Z,74.26
2018-05-17T01:33:17.369Z,75.51
2018-05-17T01:34:17.388Z,78.91
2018-05-17T01:35:17.413Z,79.68
2018-05-17T01:36:17.441Z,78.34
2018-05-17T01:37:17.469Z,79.29
2018-05-17T01:38:17.490Z,77.19
2018-05-17T01:39:17.516Z,77.00
2018-05-17T01:40:17.547Z,78.43
2018-05-17T01:41:17.571Z,78.58
2018-05-17T01:42:17.597Z,79.25
2018-05-17T01:43:17.621Z,79.54
2018-05-17T01:44:17.651Z,80.11
2018-05-17T01:45:17.675Z,78.63
2018-05-17T01:46:17.701Z,78.72
2018-05-17T01:47:17.725Z,78.05
2018-05-17T01:48:17.755Z,78.14
2018-05-17T01:49:17.777Z,77.67
2018-05-17T01:50:17.800Z,77.34
2018-05-17T01:51:17.843Z,78.11
2018-05-17T01:52:17.854Z,79.44
2018-05-17T01:53:17.888Z,79.35
2018-05-17T01:54:17.905Z,80.11
2018-05-17T01:55:17.931Z,79.35
2018-05-17T01:56:17.960Z,77.92
2018-05-17T01:57:17.985Z,77.82
2018-05-17T01:58:18.016Z,77.82
2018-05-17T01:59:18.039Z,79.25
2018-05-17T02:00:18.061Z,80.17
2018-05-17T02:01:18.091Z,81.32
2018-05-17T02:02:18.116Z,79.79
2018-05-17T02:03:18.139Z,78.83
2018-05-17T02:04:18.170Z,79.31
2018-05-17T02:05:18.199Z,80.07
2018-05-17T02:06:18.219Z,80.55
2018-05-17T02:07:18.244Z,78.64
2018-05-17T02:08:18.267Z,78.55
2018-05-17T02:09:18.291Z,78.55
2018-05-17T02:10:18.329Z,80.07
2018-05-17T02:11:18.345Z,78.74
2018-05-17T02:12:18.372Z,78.45
2018-05-17T02:13:18.395Z,79.79
2018-05-17T02:14:18.419Z,80.93
2018-05-17T02:15:18.445Z,79.64
2018-05-17T02:16:18.474Z,79.06
2018-05-17T02:17:18.498Z,78.01
2018-05-17T02:18:18.527Z,79.06
2018-05-17T02:19:18.572Z,78.78
2018-05-17T02:20:18.583Z,79.16
2018-05-17T02:21:18.602Z,78.16
2018-05-17T02:22:18.629Z,78.45
2018-05-17T02:23:18.655Z,79.79
2018-05-17T02:24:18.676Z,78.01
2018-05-17T02:25:18.704Z,77.25
2018-05-17T02:26:18.729Z,77.25
2018-05-17T02:27:18.754Z,78.97
2018-05-17T02:28:18.783Z,78.78
2018-05-17T02:29:18.812Z,77.59
2018-05-17T02:30:18.829Z,77.78
2018-05-17T02:31:18.859Z,77.50
2018-05-17T02:32:18.888Z,78.16
2018-05-17T02:33:18.909Z,79.02
2018-05-17T02:34:18.939Z,80.27
2018-05-17T02:35:18.959Z,81.03
2018-05-17T02:36:18.982Z,80.74
2018-05-17T02:37:19.013Z,80.65
2018-05-17T02:38:19.039Z,81.89
2018-05-17T02:39:19.057Z,80.93
2018-05-17T02:40:19.089Z,81.32
2018-05-17T02:41:19.108Z,79.60
2018-05-17T02:42:19.133Z,80.36
2018-05-17T02:43:19.160Z,79.50
2018-05-17T02:44:19.191Z,79.50
2018-05-17T02:45:19.214Z,79.60
2018-05-17T02:46:19.234Z,79.98
2018-05-17T02:47:19.258Z,81.03
2018-05-17T02:48:19.284Z,81.22
2018-05-17T02:49:19.312Z,82.08
2018-05-17T02:50:19.418Z,82.65
2018-05-17T02:51:19.359Z,82.28
2018-05-17T02:52:19.387Z,81.84
2018-05-17T02:53:19.413Z,80.88
2018-05-17T02:54:19.436Z,80.50
2018-05-17T02:55:19.465Z,80.69
2018-05-17T02:56:19.487Z,80.88
2018-05-17T02:57:19.513Z,79.54
2018-05-17T02:58:19.535Z,81.51
2018-05-17T02:59:19.562Z,81.41
2018-05-17T03:00:19.587Z,80.46
2018-05-17T03:01:19.620Z,79.79
2018-05-17T03:02:19.642Z,80.07
2018-05-17T03:03:19.667Z,79.54
2018-05-17T03:04:19.693Z,81.07
2018-05-17T03:05:19.712Z,81.74
2018-05-17T03:06:19.738Z,80.40
2018-05-17T03:07:19.780Z,79.44
2018-05-17T03:08:19.798Z,79.83
2018-05-17T03:09:19.819Z,79.73
2018-05-17T03:10:19.843Z,79.16
2018-05-17T03:11:19.867Z,78.97
2018-05-17T03:12:19.893Z,80.11
2018-05-17T03:13:19.918Z,78.97
2018-05-17T03:14:19.942Z,77.82
2018-05-17T03:15:19.969Z,79.93
2018-05-17T03:16:19.992Z,79.98
2018-05-17T03:17:20.017Z,80.46
2018-05-17T03:18:20.043Z,79.60
2018-05-17T03:19:20.068Z,79.22
2018-05-17T03:20:20.092Z,78.93
2018-05-17T03:21:20.117Z,80.46
2018-05-17T03:22:20.147Z,80.46
2018-05-17T03:23:20.168Z,79.60
2018-05-17T03:24:20.200Z,79.41
2018-05-17T03:25:20.219Z,81.99
2018-05-17T03:26:20.252Z,80.55
2018-05-17T03:27:20.273Z,80.07
2018-05-17T03:28:20.302Z,81.70
2018-05-17T03:29:20.326Z,81.84
2018-05-17T03:30:20.346Z,80.07
2018-05-17T03:31:20.373Z,78.58
2018-05-17T03:32:20.400Z,79.41
2018-05-17T03:33:20.426Z,80.27
2018-05-17T03:34:20.447Z,80.21
2018-05-17T03:35:20.473Z,79.54
2018-05-17T03:36:20.496Z,80.79
2018-05-17T03:37:20.522Z,81.65
2018-05-17T03:38:20.553Z,80.11
2018-05-17T03:39:20.572Z,78.26
2018-05-17T03:40:20.598Z,79.02
2018-05-17T03:41:20.624Z,79.60
2018-05-17T03:42:20.647Z,80.84
2018-05-17T03:43:20.680Z,82.18
2018-05-17T03:44:20.709Z,79.88
2018-05-17T03:45:20.726Z,81.22
2018-05-17T03:46:20.757Z,79.22
2018-05-17T03:47:20.780Z,79.31
2018-05-17T03:48:20.807Z,80.74
2018-05-17T03:49:20.848Z,82.75
2018-05-17T03:50:20.855Z,82.18
2018-05-17T03:51:20.875Z,79.60
2018-05-17T03:52:20.901Z,78.93
2018-05-17T03:53:20.925Z,79.60
2018-05-17T03:54:20.951Z,79.02
2018-05-17T03:55:20.975Z,78.36
2018-05-17T03:56:21.004Z,80.07
2018-05-17T03:57:21.037Z,78.93
2018-05-17T03:58:21.051Z,78.26
2018-05-17T03:59:21.075Z,79.60
2018-05-17T04:00:21.104Z,80.93
2018-05-17T04:01:21.193Z,80.07
2018-05-17T04:02:21.159Z,81.41
2018-05-17T04:03:21.179Z,80.36
2018-05-17T04:04:21.200Z,78.16
2018-05-17T04:05:21.231Z,79.02
2018-05-17T04:06:21.259Z,79.88
2018-05-17T04:07:21.276Z,79.50
2018-05-17T04:08:21.308Z,77.01
2018-05-17T04:09:21.330Z,78.45
2018-05-17T04:10:21.352Z,80.07
2018-05-17T04:11:21.386Z,78.45
2018-05-17T04:12:21.403Z,78.07
2018-05-17T04:13:21.429Z,76.73
2018-05-17T04:14:21.458Z,75.96
2018-05-17T04:15:21.481Z,77.30
2018-05-17T04:16:21.508Z,78.36
2018-05-17T04:17:21.530Z,78.26
2018-05-17T04:18:21.554Z,78.55
2018-05-17T04:19:21.580Z,78.26
2018-05-17T04:20:21.604Z,77.69
2018-05-17T04:21:21.634Z,79.22
2018-05-17T04:22:21.658Z,75.49
2018-05-17T04:23:21.684Z,77.69
2018-05-17T04:24:21.705Z,77.50
2018-05-17T04:25:21.731Z,78.68
2018-05-17T04:26:21.754Z,76.82
2018-05-17T04:27:21.783Z,78.39
2018-05-17T04:28:21.806Z,77.92
2018-05-17T04:29:21.956Z,75.71
2018-05-17T04:30:21.854Z,74.76
2018-05-17T04:31:21.882Z,76.39
2018-05-17T04:32:21.906Z,75.81
2018-05-17T04:33:21.934Z,75.43
2018-05-17T04:34:21.965Z,77.21
2018-05-17T04:35:21.983Z,78.55
2018-05-17T04:36:22.007Z,78.45
2018-05-17T04:37:22.035Z,79.50
2018-05-17T04:38:22.053Z,80.65
2018-05-17T04:39:22.087Z,78.07
2018-05-17T04:40:22.112Z,78.36
2018-05-17T04:41:22.134Z,78.16
2018-05-17T04:42:22.166Z,78.16
2018-05-17T04:43:22.184Z,79.22
2018-05-17T04:44:22.210Z,78.83
2018-05-17T04:45:22.233Z,77.97
2018-05-17T04:46:22.259Z,78.36
2018-05-17T04:47:22.284Z,78.87
2018-05-17T04:48:22.309Z,80.07
2018-05-17T04:49:22.337Z,80.21
2018-05-17T04:50:22.368Z,78.58
2018-05-17T04:51:22.403Z,76.86
2018-05-17T04:52:22.408Z,75.52
2018-05-17T04:53:22.433Z,76.48
2018-05-17T04:54:22.466Z,74.24
2018-05-17T04:55:22.487Z,75.30
2018-05-17T04:56:22.513Z,76.64
2018-05-17T04:57:22.535Z,78.93
2018-05-17T04:58:22.566Z,76.54
2018-05-17T04:59:22.593Z,77.01
2018-05-17T05:00:22.617Z,78.16
2018-05-17T05:01:22.646Z,76.16
2018-05-17T05:02:22.664Z,75.30
2018-05-17T05:03:22.689Z,74.73
2018-05-17T05:04:22.711Z,76.35
2018-05-17T05:05:22.743Z,76.92
2018-05-17T05:06:22.772Z,76.25
2018-05-17T05:07:22.788Z,76.82
2018-05-17T05:08:22.813Z,76.39
2018-05-17T05:09:22.861Z,76.39
2018-05-17T05:10:22.865Z,75.24
2018-05-17T05:11:22.890Z,74.76
2018-05-17T05:12:22.913Z,75.91
2018-05-17T05:13:22.942Z,74.38
2018-05-17T05:14:22.964Z,74.48
2018-05-17T05:15:22.997Z,75.34
2018-05-17T05:16:23.017Z,74.73
2018-05-17T05:17:23.042Z,73.77
2018-05-17T05:18:23.069Z,73.67
2018-05-17T05:19:23.087Z,75.59
2018-05-17T05:20:23.117Z,75.10
2018-05-17T05:21:23.157Z,76.39
2018-05-17T05:22:23.169Z,75.96
2018-05-17T05:23:23.194Z,75.59
2018-05-17T05:24:23.217Z,76.35
2018-05-17T05:25:23.257Z,75.91
2018-05-17T05:26:23.269Z,77.34
2018-05-17T05:27:23.291Z,75.24
2018-05-17T05:28:23.318Z,74.38
2018-05-17T05:29:23.347Z,74.66
2018-05-17T05:30:23.369Z,73.14
2018-05-17T05:31:23.391Z,73.61
2018-05-17T05:32:23.423Z,75.81
2018-05-17T05:33:23.452Z,77.15
2018-05-17T05:34:23.475Z,77.06
2018-05-17T05:35:23.499Z,75.52
2018-05-17T05:36:23.528Z,75.43
2018-05-17T05:37:23.546Z,76.39
2018-05-17T05:38:23.571Z,76.77
2018-05-17T05:39:23.601Z,76.86
2018-05-17T05:40:23.622Z,76.48
2018-05-17T05:41:23.651Z,76.29
2018-05-17T05:42:23.685Z,79.16
2018-05-17T05:43:23.700Z,78.11
2018-05-17T05:44:23.721Z,76.06
2018-05-17T05:45:23.751Z,77.30
2018-05-17T05:46:23.782Z,76.67
2018-05-17T05:47:23.799Z,75.05
2018-05-17T05:48:23.827Z,74.57
2018-05-17T05:49:23.853Z,75.05
2018-05-17T05:50:23.876Z,75.87
2018-05-17T05:51:23.901Z,76.67
2018-05-17T05:52:23.929Z,76.39
2018-05-17T05:53:23.957Z,78.68
2018-05-17T05:54:23.975Z,78.30
2018-05-17T05:55:24.010Z,76.48
2018-05-17T05:56:24.030Z,73.80
2018-05-17T05:57:24.056Z,74.32
2018-05-17T05:58:24.084Z,74.76
2018-05-17T05:59:24.103Z,75.76
2018-05-17T06:00:24.131Z,77.28
2018-05-17T06:01:24.159Z,75.18
2018-05-17T06:02:24.189Z,74.51
2018-05-17T06:03:24.205Z,72.60
2018-05-17T06:04:24.229Z,72.31
2018-05-17T06:05:24.260Z,71.16
2018-05-17T06:06:24.289Z,72.88
2018-05-17T06:07:24.313Z,73.17
2018-05-17T06:08:24.400Z,72.41
2018-05-17T06:09:24.364Z,74.61
2018-05-17T06:10:24.387Z,75.51
2018-05-17T06:11:24.418Z,74.80
2018-05-17T06:12:24.447Z,73.21
2018-05-17T06:13:24.470Z,72.34
2018-05-17T06:14:24.490Z,71.64
2018-05-17T06:15:24.524Z,72.88
2018-05-17T06:16:24.538Z,72.60
2018-05-17T06:17:24.649Z,72.79
2018-05-17T06:18:24.595Z,72.88
2018-05-17T06:19:24.626Z,73.36
2018-05-17T06:20:24.645Z,72.88
2018-05-17T06:21:24.669Z,72.31
2018-05-17T06:22:24.700Z,72.41
2018-05-17T06:23:24.725Z,73.84
2018-05-17T06:24:24.749Z,74.61
2018-05-17T06:25:24.782Z,74.90
2018-05-17T06:26:24.804Z,73.46
2018-05-17T06:27:24.833Z,72.31
2018-05-17T06:28:24.858Z,72.12
2018-05-17T06:29:24.882Z,72.60
2018-05-17T06:30:24.924Z,73.79
2018-05-17T06:31:24.929Z,72.50
2018-05-17T06:32:24.958Z,72.12
2018-05-17T06:33:24.985Z,73.50
2018-05-17T06:34:25.017Z,74.22
2018-05-17T06:35:25.036Z,73.46
2018-05-17T06:36:25.065Z,74.74
2018-05-17T06:37:25.097Z,74.26
2018-05-17T06:38:25.121Z,73.02
2018-05-17T06:39:25.147Z,72.73
2018-05-17T06:40:25.177Z,72.54
2018-05-17T06:41:25.195Z,72.44
2018-05-17T06:42:25.221Z,71.39
2018-05-17T06:43:25.244Z,71.87
2018-05-17T06:44:25.293Z,72.63
2018-05-17T06:45:25.304Z,72.25
2018-05-17T06:46:25.324Z,70.43
2018-05-17T06:47:25.358Z,71.97
2018-05-17T06:48:25.380Z,72.54
2018-05-17T06:49:25.403Z,72.19
2018-05-17T06:50:25.429Z,71.97
2018-05-17T06:51:25.459Z,71.77
2018-05-17T06:52:25.483Z,71.58
2018-05-17T06:53:25.512Z,73.08
2018-05-17T06:54:25.540Z,73.40
2018-05-17T06:55:25.558Z,73.69
2018-05-17T06:56:25.638Z,73.40
2018-05-17T06:57:25.616Z,72.92
2018-05-17T06:58:25.637Z,71.71
2018-05-17T06:59:25.667Z,71.81
2018-05-17T07:00:25.692Z,70.85
2018-05-17T07:01:25.723Z,69.80
2018-05-17T07:02:25.747Z,71.04
2018-05-17T07:03:25.771Z,71.33
2018-05-17T07:04:25.801Z,69.03
2018-05-17T07:05:25.830Z,70.95
2018-05-17T07:06:25.856Z,69.76
2018-05-17T07:07:25.877Z,69.86
2018-05-17T07:08:25.907Z,71.62
2018-05-17T07:09:25.937Z,69.38
2018-05-17T07:10:25.990Z,72.34
2018-05-17T07:11:25.990Z,70.78
2018-05-17T07:12:26.017Z,71.68
2018-05-17T07:13:26.040Z,72.25
2018-05-17T07:14:26.073Z,74.84
2018-05-17T07:15:26.096Z,73.02
2018-05-17T07:16:26.120Z,72.29
2018-05-17T07:17:26.151Z,69.80
2018-05-17T07:18:26.304Z,70.56
2018-05-17T07:19:26.204Z,72.09
2018-05-17T07:20:26.222Z,70.09
2018-05-17T07:21:26.252Z,70.56
2018-05-17T07:22:26.276Z,69.54
2018-05-17T07:23:26.309Z,69.45
2018-05-17T07:24:26.335Z,67.82
2018-05-17T07:25:26.359Z,68.21
2018-05-17T07:26:26.387Z,70.47
2018-05-17T07:27:26.412Z,70.85
2018-05-17T07:28:26.437Z,71.77
2018-05-17T07:29:26.463Z,74.07
2018-05-17T07:30:26.492Z,71.77
2018-05-17T07:31:26.545Z,70.53
2018-05-17T07:32:26.549Z,71.77
2018-05-17T07:33:26.574Z,71.97
2018-05-17T07:34:26.596Z,72.54
2018-05-17T07:35:26.624Z,71.68
2018-05-17T07:36:26.651Z,71.23
2018-05-17T07:37:26.679Z,71.42
2018-05-17T07:38:26.705Z,71.42
2018-05-17T07:39:26.739Z,71.81
2018-05-17T07:40:26.755Z,71.71
2018-05-17T07:41:26.792Z,67.88
2018-05-17T07:42:26.818Z,67.72
2018-05-17T07:43:26.835Z,69.17
2018-05-17T07:44:26.867Z,70.79
2018-05-17T07:45:26.888Z,69.80
2018-05-17T07:46:26.921Z,71.71
2018-05-17T07:47:26.949Z,68.94
2018-05-17T07:48:26.971Z,69.80
2018-05-17T07:49:27.002Z,69.23
2018-05-17T07:50:27.029Z,70.09
2018-05-17T07:51:27.066Z,70.85
2018-05-17T07:52:27.077Z,71.52
2018-05-17T07:53:27.104Z,70.37
2018-05-17T07:54:27.140Z,71.87
2018-05-17T07:55:27.160Z,70.95
2018-05-17T07:56:27.186Z,71.71
2018-05-17T07:57:27.218Z,69.42
2018-05-17T07:58:27.243Z,69.60
2018-05-17T07:59:27.274Z,68.36
2018-05-17T08:00:27.327Z,68.36
2018-05-17T08:01:27.320Z,68.46
2018-05-17T08:02:27.353Z,68.36
2018-05-17T08:03:27.375Z,69.13
2018-05-17T08:04:27.406Z,67.60
2018-05-17T08:05:27.432Z,67.21
2018-05-17T08:06:27.470Z,67.25
2018-05-17T08:07:27.486Z,68.68
2018-05-17T08:08:27.515Z,66.38
2018-05-17T08:09:27.652Z,67.44
2018-05-17T08:10:27.569Z,67.54
2018-05-17T08:11:27.593Z,65.91
2018-05-17T08:12:27.620Z,66.74
2018-05-17T08:13:27.645Z,67.60
2018-05-17T08:14:27.670Z,67.02
2018-05-17T08:15:27.701Z,66.86
2018-05-17T08:16:27.736Z,67.91
2018-05-17T08:17:27.758Z,67.25
2018-05-17T08:18:27.781Z,67.05
2018-05-17T08:19:27.806Z,68.40
2018-05-17T08:20:27.837Z,68.87
2018-05-17T08:21:27.861Z,66.38
2018-05-17T08:22:27.904Z,67.98
2018-05-17T08:23:27.918Z,70.37
2018-05-17T08:24:27.948Z,69.99
2018-05-17T08:25:27.968Z,68.17
2018-05-17T08:26:27.994Z,66.25
2018-05-17T08:27:28.021Z,68.65
2018-05-17T08:28:28.053Z,68.65
2018-05-17T08:29:28.083Z,68.84
2018-05-17T08:30:28.104Z,70.47
2018-05-17T08:31:28.133Z,68.55
2018-05-17T08:32:28.163Z,68.27
2018-05-17T08:33:28.183Z,68.65
2018-05-17T08:34:28.216Z,68.49
2018-05-17T08:35:28.238Z,67.21
2018-05-17T08:36:28.420Z,69.51
2018-05-17T08:37:28.293Z,68.84
2018-05-17T08:38:28.327Z,68.65
2018-05-17T08:39:28.365Z,66.83
2018-05-17T08:40:28.383Z,66.77
2018-05-17T08:41:28.408Z,67.15
2018-05-17T08:42:28.459Z,69.29
2018-05-17T08:43:28.459Z,65.14
2018-05-17T08:44:28.484Z,65.17
2018-05-17T08:45:28.510Z,68.62
2018-05-17T08:46:28.539Z,68.43
2018-05-17T08:47:28.563Z,66.67
2018-05-17T08:48:28.598Z,66.61
2018-05-17T08:49:28.627Z,64.85
2018-05-17T08:50:28.648Z,65.33
2018-05-17T08:51:28.678Z,65.91
2018-05-17T08:52:28.703Z,68.59
2018-05-17T08:53:28.729Z,66.19
2018-05-17T08:54:28.803Z,66.48
2018-05-17T08:55:28.783Z,65.20
2018-05-17T08:56:28.813Z,65.58
2018-05-17T08:57:28.839Z,67.11
2018-05-17T08:58:28.869Z,67.21
2018-05-17T08:59:28.895Z,67.88
2018-05-17T09:00:28.924Z,68.49
2018-05-17T09:01:28.953Z,67.15
2018-05-17T09:02:28.980Z,63.99
2018-05-17T09:03:29.011Z,64.95
2018-05-17T09:04:29.037Z,63.64
2018-05-17T09:05:29.057Z,64.12
2018-05-17T09:06:29.091Z,65.75
2018-05-17T09:07:29.116Z,63.54
2018-05-17T09:08:29.145Z,63.89
2018-05-17T09:09:29.171Z,65.52
2018-05-17T09:10:29.199Z,66.35
2018-05-17T09:11:29.223Z,66.77
2018-05-17T09:12:29.259Z,67.34
2018-05-17T09:13:29.356Z,64.85
2018-05-17T09:14:29.307Z,63.99
2018-05-17T09:15:29.338Z,64.69
2018-05-17T09:16:29.361Z,64.59
2018-05-17T09:17:29.400Z,64.53
2018-05-17T09:18:29.418Z,62.59
2018-05-17T09:19:29.442Z,63.64
2018-05-17T09:20:29.500Z,65.17
2018-05-17T09:21:29.510Z,66.71
2018-05-17T09:22:29.530Z,65.84
2018-05-17T09:23:29.551Z,67.12
2018-05-17T09:24:29.582Z,61.63
2018-05-17T09:25:29.611Z,62.49
2018-05-17T09:26:29.640Z,62.10
2018-05-17T09:27:29.673Z,63.76
2018-05-17T09:28:29.690Z,64.50
2018-05-17T09:29:29.720Z,64.22
2018-05-17T09:30:29.747Z,65.36
2018-05-17T09:31:29.775Z,65.23
2018-05-17T09:32:29.808Z,64.79
2018-05-17T09:33:29.836Z,65.46
2018-05-17T09:34:29.859Z,65.08
2018-05-17T09:35:29.889Z,64.31
2018-05-17T09:36:29.913Z,64.50
2018-05-17T09:37:29.945Z,63.45
2018-05-17T09:38:29.972Z,63.26
2018-05-17T09:39:30.000Z,62.65
2018-05-17T09:40:30.023Z,64.50
2018-05-17T09:41:30.080Z,64.15
2018-05-17T09:42:30.078Z,62.26
2018-05-17T09:43:30.115Z,62.45
2018-05-17T09:44:30.136Z,63.25
2018-05-17T09:45:30.167Z,61.81
2018-05-17T09:46:30.192Z,61.52
2018-05-17T09:47:30.263Z,59.89
2018-05-17T09:48:30.249Z,60.92
2018-05-17T09:49:30.280Z,63.99
2018-05-17T09:50:30.311Z,61.98
2018-05-17T09:51:30.338Z,60.92
2018-05-17T09:52:30.369Z,60.89
2018-05-17T09:53:30.384Z,60.31
2018-05-17T09:54:30.425Z,61.94
2018-05-17T09:55:30.448Z,61.94
2018-05-17T09:56:30.469Z,63.19
2018-05-17T09:57:30.496Z,62.36
2018-05-17T09:58:30.536Z,61.94
2018-05-17T09:59:30.556Z,61.18
2018-05-17T10:00:30.585Z,63.19
2018-05-17T10:01:30.613Z,63.09
2018-05-17T10:02:30.643Z,62.07
2018-05-17T10:03:30.669Z,60.99
2018-05-17T10:04:30.695Z,63.38
2018-05-17T10:05:30.760Z,64.34
2018-05-17T10:06:30.755Z,63.86
2018-05-17T10:07:30.784Z,65.20
2018-05-17T10:08:30.818Z,62.62
2018-05-17T10:09:30.836Z,62.52
2018-05-17T10:10:30.869Z,61.94
2018-05-17T10:11:30.894Z,62.07
2018-05-17T10:12:30.924Z,62.81
2018-05-17T10:13:30.958Z,61.66
2018-05-17T10:14:31.076Z,61.18
2018-05-17T10:15:31.018Z,61.08
2018-05-17T10:16:31.038Z,62.16
2018-05-17T10:17:31.077Z,61.49
2018-05-17T10:18:31.094Z,61.66
2018-05-17T10:19:31.131Z,62.81
2018-05-17T10:20:31.148Z,64.59
2018-05-17T10:21:31.180Z,64.59
2018-05-17T10:22:31.209Z,66.42
2018-05-17T10:23:31.235Z,65.11
2018-05-17T10:24:31.265Z,62.30
2018-05-17T10:25:31.291Z,61.75
2018-05-17T10:26:31.319Z,61.43
2018-05-17T10:27:31.353Z,62.01
2018-05-17T10:28:31.376Z,62.52
2018-05-17T10:29:31.426Z,62.59
2018-05-17T10:30:31.438Z,62.23
2018-05-17T10:31:31.463Z,62.04
2018-05-17T10:32:31.491Z,61.46
2018-05-17T10:33:31.521Z,62.04
2018-05-17T10:34:31.551Z,62.04
2018-05-17T10:35:31.577Z,62.04
2018-05-17T10:36:31.602Z,59.96
2018-05-17T10:37:31.633Z,59.58
2018-05-17T10:38:31.660Z,60.35
2018-05-17T10:39:31.692Z,61.11
2018-05-17T10:40:31.722Z,62.84
2018-05-17T10:41:31.747Z,62.10
2018-05-17T10:42:31.773Z,60.47
2018-05-17T10:43:31.797Z,58.45
2018-05-17T10:44:31.832Z,57.30
2018-05-17T10:45:31.859Z,59.06
2018-05-17T10:46:31.887Z,60.11
2018-05-17T10:47:31.973Z,60.60
2018-05-17T10:48:31.943Z,59.57
2018-05-17T10:49:31.976Z,57.45
2018-05-17T10:50:32.003Z,55.79
2018-05-17T10:51:32.036Z,55.79
2018-05-17T10:52:32.065Z,55.79
2018-05-17T10:53:32.109Z,54.06
2018-05-17T10:54:32.158Z,55.69
2018-05-17T10:55:32.146Z,57.04
2018-05-17T10:56:32.177Z,56.63
2018-05-17T10:57:32.212Z,57.30
2018-05-17T10:58:32.232Z,56.85
2018-05-17T10:59:32.264Z,57.10
2018-05-17T11:00:32.292Z,56.91
2018-05-17T11:01:32.321Z,54.34
2018-05-17T11:02:32.454Z,54.09
2018-05-17T11:03:32.378Z,55.24
2018-05-17T11:04:32.412Z,54.16
2018-05-17T11:05:32.445Z,53.64
2018-05-17T11:06:32.466Z,55.49
2018-05-17T11:07:32.507Z,52.18
2018-05-17T11:08:32.529Z,52.34
2018-05-17T11:09:32.565Z,52.20
2018-05-17T11:10:32.588Z,51.14
2018-05-17T11:11:32.625Z,47.29
2018-05-17T11:12:32.653Z,49.29
2018-05-17T11:13:32.686Z,52.34
2018-05-17T11:14:32.716Z,52.94
2018-05-17T11:15:32.742Z,56.56
2018-05-17T11:16:32.775Z,55.98
2018-05-17T11:17:32.801Z,50.04
2018-05-17T11:18:32.832Z,44.78
2018-05-17T11:19:32.869Z,45.24
2018-05-17T11:20:32.896Z,45.87
2018-05-17T11:21:32.930Z,47.67
2018-05-17T11:22:32.956Z,48.71
2018-05-17T11:23:32.992Z,49.58
2018-05-17T11:24:33.021Z,50.68
2018-05-17T11:25:33.055Z,51.26
2018-05-17T11:26:33.086Z,53.83
2018-05-17T11:27:33.116Z,52.39
2018-05-17T11:28:33.146Z,51.48
2018-05-17T11:29:33.175Z,50.32
2018-05-17T11:30:33.210Z,51.76
2018-05-17T11:31:33.241Z,52.75
2018-05-17T11:32:33.277Z,47.10
2018-05-17T11:33:33.299Z,48.74
2018-05-17T11:34:33.335Z,44.95
2018-05-17T11:35:33.365Z,43.08
2018-05-17T11:36:33.393Z,40.57
2018-05-17T11:37:33.426Z,43.81
2018-05-17T11:38:33.550Z,47.02
2018-05-17T11:39:33.488Z,44.46
2018-05-17T11:40:33.522Z,45.79
2018-05-17T11:41:33.555Z,41.97
2018-05-17T11:42:33.581Z,41.93
2018-05-17T11:43:33.615Z,43.91
2018-05-17T11:44:33.644Z,49.05
2018-05-17T11:45:33.676Z,49.79
2018-05-17T11:46:33.721Z,50.54
2018-05-17T11:47:33.743Z,48.47
2018-05-17T11:48:33.778Z,51.96
2018-05-17T11:49:33.815Z,52.20
2018-05-17T11:50:33.841Z,54.50
2018-05-17T11:51:33.870Z,56.49
2018-05-17T11:52:33.900Z,58.48
2018-05-17T11:53:33.934Z,57.26
2018-05-17T11:54:33.967Z,57.26
2018-05-17T11:55:33.999Z,56.11
2018-05-17T11:56:34.023Z,56.52
2018-05-17T11:57:34.057Z,55.91
2018-05-17T11:58:34.091Z,56.30
2018-05-17T11:59:34.127Z,56.30
2018-05-17T12:00:34.157Z,56.49
2018-05-17T12:01:34.281Z,55.66
2018-05-17T12:02:34.218Z,55.37
2018-05-17T12:03:34.243Z,55.53
2018-05-17T12:04:34.275Z,56.52
2018-05-17T12:05:34.300Z,56.68
2018-05-17T12:06:34.337Z,57.45
2018-05-17T12:07:34.370Z,58.03
2018-05-17T12:08:34.392Z,57.32
2018-05-17T12:09:34.427Z,51.96
2018-05-17T12:10:34.469Z,52.54
2018-05-17T12:11:34.487Z,52.92
2018-05-17T12:12:34.511Z,53.59
2018-05-17T12:13:34.545Z,54.63
2018-05-17T12:14:34.572Z,55.73
2018-05-17T12:15:34.604Z,57.90
2018-05-17T12:16:34.636Z,61.84
2018-05-17T12:17:34.671Z,58.96
2018-05-17T12:18:34.704Z,59.99
2018-05-17T12:19:34.725Z,60.95
2018-05-17T12:20:34.754Z,62.77
2018-05-17T12:21:34.784Z,60.92
2018-05-17T12:22:34.816Z,61.49
2018-05-17T12:23:34.876Z,62.26
2018-05-17T12:24:34.873Z,60.82
2018-05-17T12:25:34.905Z,62.45
2018-05-17T12:26:34.935Z,64.34
2018-05-17T12:27:34.968Z,64.09
2018-05-17T12:28:35.044Z,64.15
2018-05-17T12:29:35.032Z,64.63
2018-05-17T12:30:35.048Z,68.05
2018-05-17T12:31:35.082Z,68.24
2018-05-17T12:32:35.109Z,68.43
2018-05-17T12:33:35.140Z,70.15
2018-05-17T12:34:35.169Z,67.66
2018-05-17T12:35:35.197Z,67.28
2018-05-17T12:36:35.224Z,67.28
2018-05-17T12:37:35.262Z,66.89
2018-05-17T12:38:35.286Z,66.61
2018-05-17T12:39:35.308Z,66.51
2018-05-17T12:40:35.338Z,65.65
2018-05-17T12:41:35.372Z,68.05
2018-05-17T12:42:35.391Z,69.48
2018-05-17T12:43:35.422Z,69.26
2018-05-17T12:44:35.455Z,70.79
2018-05-17T12:45:35.478Z,70.70
2018-05-17T12:46:35.513Z,68.97
2018-05-17T12:47:35.533Z,70.44
2018-05-17T12:48:35.568Z,70.35
2018-05-17T12:49:35.613Z,70.25
2018-05-17T12:50:35.626Z,68.72
2018-05-17T12:51:35.654Z,68.62
2018-05-17T12:52:35.678Z,69.20